createdAt,value
2023-03-12T00:29:16.013Z,1002.3
2023-03-12T00:29:56.674Z,1002.31
2023-03-12T00:30:37.217Z,1002.29
2023-03-12T00:31:17.881Z,1002.32
2023-03-12T00:31:58.349Z,1002.36
2023-03-12T00:32:38.874Z,1002.3
2023-03-12T00:33:19.422Z,1002.31
2023-03-12T00:33:59.888Z,1002.25
2023-03-12T00:34:40.374Z,1002.29
2023-03-12T00:35:20.902Z,1002.29
2023-03-12T00:36:01.511Z,1002.29
2023-03-12T00:36:41.916Z,1002.27
2023-03-12T00:37:22.435Z,1002.28
2023-03-12T00:38:44.109Z,1002.32
2023-03-12T00:39:23.959Z,1002.22
2023-03-12T00:40:04.451Z,1002.21
2023-03-12T00:40:44.977Z,1002.21
2023-03-12T00:41:25.472Z,1002.17
2023-03-12T00:42:06.010Z,1002.14
2023-03-12T00:42:46.495Z,1002.16
2023-03-12T00:43:26.996Z,1002.09
2023-03-12T00:44:07.467Z,1002.13
2023-03-12T00:44:47.986Z,1002.13
2023-03-12T00:45:28.472Z,1002.09
2023-03-12T00:46:08.936Z,1002.11
2023-03-12T00:46:49.460Z,1002.08
2023-03-12T00:47:29.941Z,1002.09
2023-03-12T00:48:50.921Z,1002.14
2023-03-12T00:49:31.476Z,1002.11
2023-03-12T00:50:11.961Z,1002.07
2023-03-12T00:50:52.457Z,1002.1
2023-03-12T00:51:32.950Z,1002.08
2023-03-12T00:52:13.443Z,1002.05
2023-03-12T00:52:53.930Z,1002.08
2023-03-12T00:53:34.457Z,1002.08
2023-03-12T00:54:14.914Z,1002.11
2023-03-12T00:54:55.429Z,1002.13
2023-03-12T00:55:35.923Z,1002.09
2023-03-12T00:56:16.401Z,1002.09
2023-03-12T00:56:56.875Z,1002.11
2023-03-12T00:57:37.351Z,1002.11
2023-03-12T00:58:17.816Z,1002.07
2023-03-12T00:58:58.299Z,1002.11
2023-03-12T00:59:38.845Z,1002.09
2023-03-12T01:00:19.288Z,1002.12
2023-03-12T01:00:59.816Z,1002.1
2023-03-12T01:01:40.300Z,1002.1
2023-03-12T01:02:20.774Z,1002.12
2023-03-12T01:03:01.232Z,1002.12
2023-03-12T01:03:41.740Z,1002.13
2023-03-12T01:04:22.278Z,1002.12
2023-03-12T01:05:02.695Z,1002.17
2023-03-12T01:05:43.168Z,1002.16
2023-03-12T01:06:23.639Z,1002.17
2023-03-12T01:07:04.152Z,1002.18
2023-03-12T01:07:44.643Z,1002.14
2023-03-12T01:08:25.163Z,1002.17
2023-03-12T01:09:05.620Z,1002.18
2023-03-12T01:09:46.124Z,1002.19
2023-03-12T01:10:26.685Z,1002.15
2023-03-12T01:11:07.409Z,1002.11
2023-03-12T01:11:47.950Z,1002.12
2023-03-12T01:12:28.983Z,1002.12
2023-03-12T01:13:09.692Z,1002.11
2023-03-12T01:13:50.274Z,1002.07
2023-03-12T01:14:31.131Z,1002.09
2023-03-12T01:15:11.632Z,1002.03
2023-03-12T01:15:52.265Z,1002.08
2023-03-12T01:16:33.108Z,1002.03
2023-03-12T01:17:13.738Z,1002.06
2023-03-12T01:17:54.206Z,1002.06
2023-03-12T01:18:34.765Z,1002.05
2023-03-12T01:19:15.229Z,1002.05
2023-03-12T01:19:55.708Z,1002.06
2023-03-12T01:20:36.209Z,1002.04
2023-03-12T01:21:16.661Z,1002.02
2023-03-12T01:21:57.167Z,1002.03
2023-03-12T01:22:37.621Z,1002.06
2023-03-12T01:23:58.599Z,1002
2023-03-12T01:24:39.088Z,1002.01
2023-03-12T01:25:19.590Z,1002
2023-03-12T01:26:00.124Z,1001.96
2023-03-12T01:26:40.582Z,1001.97
2023-03-12T01:27:21.092Z,1001.92
2023-03-12T01:28:01.607Z,1001.89
2023-03-12T01:28:42.102Z,1001.93
2023-03-12T01:29:22.623Z,1001.95
2023-03-12T01:30:03.103Z,1001.9
2023-03-12T01:30:43.593Z,1001.89
2023-03-12T01:31:24.199Z,1001.86
2023-03-12T01:32:04.622Z,1001.86
2023-03-12T01:32:45.168Z,1001.89
2023-03-12T01:34:06.154Z,1001.91
2023-03-12T01:34:46.635Z,1001.84
2023-03-12T01:35:27.212Z,1001.82
2023-03-12T01:36:07.801Z,1001.82
2023-03-12T01:36:48.117Z,1001.82
2023-03-12T01:37:28.578Z,1001.83
2023-03-12T01:38:09.049Z,1001.79
2023-03-12T01:38:49.551Z,1001.8
2023-03-12T01:39:30.082Z,1001.77
2023-03-12T01:40:10.573Z,1001.74
2023-03-12T01:40:51.056Z,1001.74
2023-03-12T01:41:31.536Z,1001.74
2023-03-12T01:42:12.029Z,1001.71
2023-03-12T01:42:52.566Z,1001.69
2023-03-12T01:43:33.034Z,1001.69
2023-03-12T01:44:13.566Z,1001.71
2023-03-12T01:44:54.140Z,1001.68
2023-03-12T01:45:34.554Z,1001.69
2023-03-12T01:46:15.098Z,1001.65
2023-03-12T01:46:55.609Z,1001.68
2023-03-12T01:47:36.038Z,1001.7
2023-03-12T01:48:16.532Z,1001.67
2023-03-12T01:49:37.472Z,1001.68
2023-03-12T01:50:17.929Z,1001.62
2023-03-12T01:50:58.374Z,1001.6
2023-03-12T01:51:38.879Z,1001.59
2023-03-12T01:52:19.347Z,1001.57
2023-03-12T01:52:59.835Z,1001.54
2023-03-12T01:53:40.345Z,1001.5
2023-03-12T01:54:20.806Z,1001.48
2023-03-12T01:55:01.334Z,1001.46
2023-03-12T01:55:41.817Z,1001.46
2023-03-12T01:57:02.806Z,1001.48
2023-03-12T01:57:43.284Z,1001.47
2023-03-12T01:58:23.790Z,1001.51
2023-03-12T01:59:04.265Z,1001.44
2023-03-12T01:59:44.736Z,1001.46
2023-03-12T02:00:25.214Z,1001.48
2023-03-12T02:01:05.699Z,1001.47
2023-03-12T02:01:46.195Z,1001.41
2023-03-12T02:02:26.723Z,1001.4
2023-03-12T02:03:07.150Z,1001.43
2023-03-12T02:03:47.689Z,1001.44
2023-03-12T02:04:28.421Z,1001.39
2023-03-12T02:05:08.834Z,1001.37
2023-03-12T02:05:49.387Z,1001.39
2023-03-12T02:07:10.294Z,1001.4
2023-03-12T02:07:50.804Z,1001.37
2023-03-12T02:08:31.295Z,1001.33
2023-03-12T02:09:11.821Z,1001.28
2023-03-12T02:09:52.299Z,1001.29
2023-03-12T02:10:32.790Z,1001.32
2023-03-12T02:11:13.295Z,1001.27
2023-03-12T02:11:53.751Z,1001.29
2023-03-12T02:12:34.242Z,1001.21
2023-03-12T02:13:14.736Z,1001.22
2023-03-12T02:13:55.259Z,1001.18
2023-03-12T02:14:35.769Z,1001.19
2023-03-12T02:15:16.269Z,1001.17
2023-03-12T02:15:56.737Z,1001.14
2023-03-12T02:17:17.681Z,1001.18
2023-03-12T02:17:58.202Z,1001.15
2023-03-12T02:18:38.723Z,1001.13
2023-03-12T02:19:19.149Z,1001.13
2023-03-12T02:19:59.639Z,1001.16
2023-03-12T02:20:40.181Z,1001.17
2023-03-12T02:21:20.609Z,1001.14
2023-03-12T02:22:01.088Z,1001.17
2023-03-12T02:22:41.583Z,1001.13
2023-03-12T02:23:22.115Z,1001.15
2023-03-12T02:24:02.557Z,1001.17
2023-03-12T02:24:43.038Z,1001.18
2023-03-12T02:25:23.507Z,1001.18
2023-03-12T02:26:04.041Z,1001.16
2023-03-12T02:26:44.536Z,1001.14
2023-03-12T02:27:25.021Z,1001.11
2023-03-12T02:28:05.535Z,1001.07
2023-03-12T02:28:46.023Z,1001.1
2023-03-12T02:29:26.555Z,1001.14
2023-03-12T02:30:07.033Z,1001.1
2023-03-12T02:30:47.511Z,1001.06
2023-03-12T02:31:28.032Z,1001.07
2023-03-12T02:32:08.494Z,1001.03
2023-03-12T02:32:49.077Z,1001.1
2023-03-12T02:33:29.509Z,1001.08
2023-03-12T02:34:09.966Z,1001.06
2023-03-12T02:34:50.536Z,1001.05
2023-03-12T02:35:31.116Z,1001.02
2023-03-12T02:36:11.655Z,1001.06
2023-03-12T02:37:32.484Z,1001.08
2023-03-12T02:38:12.957Z,1001.09
2023-03-12T02:38:53.437Z,1001.13
2023-03-12T02:39:33.937Z,1001.12
2023-03-12T02:40:14.436Z,1001.12
2023-03-12T02:40:55.007Z,1001.05
2023-03-12T02:41:36.421Z,1001.07
2023-03-12T02:42:16.966Z,1001.09
2023-03-12T02:42:57.547Z,1001.14
2023-03-12T02:43:37.949Z,1001.11
2023-03-12T02:44:18.461Z,1001.16
2023-03-12T02:44:58.921Z,1001.11
2023-03-12T02:45:39.446Z,1001.1
2023-03-12T02:46:20.007Z,1001.1
2023-03-12T02:47:00.459Z,1001.09
2023-03-12T02:47:40.970Z,1001.08
2023-03-12T02:48:21.461Z,1001.07
2023-03-12T02:49:01.969Z,1001.04
2023-03-12T02:49:42.447Z,1001.07
2023-03-12T02:50:22.960Z,1001.08
2023-03-12T02:51:03.447Z,1001.08
2023-03-12T02:51:43.935Z,1001.09
2023-03-12T02:52:24.472Z,1001.11
2023-03-12T02:53:04.888Z,1001.11
2023-03-12T02:53:45.375Z,1001.08
2023-03-12T02:54:25.889Z,1001.09
2023-03-12T02:55:06.430Z,1001.07
2023-03-12T02:55:46.903Z,1001.1
2023-03-12T02:56:27.454Z,1001.1
2023-03-12T02:57:48.417Z,1001.02
2023-03-12T02:58:28.885Z,1001.08
2023-03-12T02:59:09.437Z,1001.02
2023-03-12T02:59:49.936Z,1001.03
2023-03-12T03:00:30.409Z,1001.01
2023-03-12T03:01:10.929Z,1001.06
2023-03-12T03:01:51.361Z,1001.02
2023-03-12T03:02:31.856Z,1001.01
2023-03-12T03:03:12.316Z,1001.02
2023-03-12T03:03:52.880Z,1001
2023-03-12T03:04:33.423Z,1001.02
2023-03-12T03:05:13.891Z,1001.02
2023-03-12T03:05:54.359Z,1001
2023-03-12T03:06:34.829Z,1000.98
2023-03-12T03:07:15.305Z,1001
2023-03-12T03:07:55.818Z,1000.97
2023-03-12T03:08:36.262Z,1000.97
2023-03-12T03:09:16.772Z,1000.95
2023-03-12T03:09:57.230Z,1000.99
2023-03-12T03:10:37.743Z,1000.97
2023-03-12T03:11:18.242Z,1000.99
2023-03-12T03:11:58.796Z,1000.93
2023-03-12T03:12:39.277Z,1000.94
2023-03-12T03:13:19.741Z,1000.95
2023-03-12T03:14:00.258Z,1000.92
2023-03-12T03:14:40.753Z,1000.95
2023-03-12T03:15:21.220Z,1000.98
2023-03-12T03:17:18.842Z,1000.95
2023-03-12T03:17:59.399Z,1000.92
2023-03-12T03:18:39.881Z,1000.94
2023-03-12T03:19:20.366Z,1000.94
2023-03-12T03:20:00.864Z,1000.97
2023-03-12T03:20:41.311Z,1000.92
2023-03-12T03:21:21.855Z,1000.9
2023-03-12T03:22:02.321Z,1000.89
2023-03-12T03:22:42.810Z,1000.89
2023-03-12T03:23:23.247Z,1000.89
2023-03-12T03:24:03.793Z,1000.85
2023-03-12T03:24:44.240Z,1000.86
2023-03-12T03:25:24.738Z,1000.86
2023-03-12T03:26:05.212Z,1000.85
2023-03-12T03:26:45.695Z,1000.83
2023-03-12T03:27:26.193Z,1000.87
2023-03-12T03:28:06.723Z,1000.85
2023-03-12T03:28:47.170Z,1000.86
2023-03-12T03:29:27.749Z,1000.89
2023-03-12T03:30:08.171Z,1000.87
2023-03-12T03:30:48.703Z,1000.91
2023-03-12T03:31:29.255Z,1000.88
2023-03-12T03:32:09.711Z,1000.89
2023-03-12T03:32:50.244Z,1000.88
2023-03-12T03:33:30.673Z,1000.93
2023-03-12T03:34:11.166Z,1000.89
2023-03-12T03:34:51.673Z,1000.84
2023-03-12T03:35:32.168Z,1000.88
2023-03-12T03:36:12.619Z,1000.81
2023-03-12T03:36:53.102Z,1000.84
2023-03-12T03:37:33.580Z,1000.8
2023-03-12T03:38:14.118Z,1000.81
2023-03-12T03:38:54.577Z,1000.79
2023-03-12T03:39:35.093Z,1000.81
2023-03-12T03:40:15.553Z,1000.8
2023-03-12T03:40:55.995Z,1000.76
2023-03-12T03:41:36.527Z,1000.79
2023-03-12T03:42:16.963Z,1000.76
2023-03-12T03:42:57.475Z,1000.77
2023-03-12T03:43:37.957Z,1000.77
2023-03-12T03:44:18.420Z,1000.76
2023-03-12T03:44:58.903Z,1000.72
2023-03-12T03:45:39.392Z,1000.78
2023-03-12T03:46:19.914Z,1000.76
2023-03-12T03:47:00.395Z,1000.76
2023-03-12T03:47:40.883Z,1000.75
2023-03-12T03:48:21.374Z,1000.79
2023-03-12T03:49:01.890Z,1000.74
2023-03-12T03:50:22.865Z,1000.73
2023-03-12T03:51:03.351Z,1000.8
2023-03-12T03:51:43.873Z,1000.74
2023-03-12T03:52:24.310Z,1000.78
2023-03-12T03:53:04.794Z,1000.76
2023-03-12T03:53:45.303Z,1000.79
2023-03-12T03:54:25.818Z,1000.8
2023-03-12T03:55:06.242Z,1000.8
2023-03-12T03:55:46.746Z,1000.75
2023-03-12T03:56:27.173Z,1000.81
2023-03-12T03:57:07.651Z,1000.79
2023-03-12T03:57:48.130Z,1000.78
2023-03-12T03:58:28.649Z,1000.77
2023-03-12T03:59:09.112Z,1000.78
2023-03-12T03:59:49.595Z,1000.84
2023-03-12T04:00:30.096Z,1000.8
2023-03-12T04:01:10.570Z,1000.82
2023-03-12T04:01:51.069Z,1000.82
2023-03-12T04:02:31.534Z,1000.78
2023-03-12T04:03:12.048Z,1000.82
2023-03-12T04:03:52.549Z,1000.8
2023-03-12T04:04:33.064Z,1000.84
2023-03-12T04:05:13.593Z,1000.8
2023-03-12T04:05:54.052Z,1000.79
2023-03-12T04:06:34.561Z,1000.8
2023-03-12T04:07:14.984Z,1000.76
2023-03-12T04:07:55.468Z,1000.78
2023-03-12T04:08:35.970Z,1000.79
2023-03-12T04:09:16.449Z,1000.77
2023-03-12T04:09:56.908Z,1000.75
2023-03-12T04:10:37.455Z,1000.75
2023-03-12T04:11:17.865Z,1000.8
2023-03-12T04:11:58.347Z,1000.78
2023-03-12T04:12:38.885Z,1000.78
2023-03-12T04:13:19.350Z,1000.77
2023-03-12T04:13:59.888Z,1000.8
2023-03-12T04:14:40.426Z,1000.79
2023-03-12T04:15:20.794Z,1000.79
2023-03-12T04:16:01.353Z,1000.8
2023-03-12T04:16:41.786Z,1000.82
2023-03-12T04:17:22.252Z,1000.82
2023-03-12T04:18:02.801Z,1000.83
2023-03-12T04:18:43.221Z,1000.85
2023-03-12T04:19:23.773Z,1000.85
2023-03-12T04:20:04.215Z,1000.83
2023-03-12T04:20:44.702Z,1000.82
2023-03-12T04:21:25.176Z,1000.81
2023-03-12T04:22:05.710Z,1000.83
2023-03-12T04:22:46.151Z,1000.85
2023-03-12T04:23:26.661Z,1000.8
2023-03-12T04:24:07.149Z,1000.77
2023-03-12T04:24:47.656Z,1000.76
2023-03-12T04:25:28.105Z,1000.77
2023-03-12T04:26:08.588Z,1000.72
2023-03-12T04:26:49.043Z,1000.71
2023-03-12T04:27:29.575Z,1000.68
2023-03-12T04:28:10.029Z,1000.68
2023-03-12T04:28:50.552Z,1000.65
2023-03-12T04:29:31.026Z,1000.62
2023-03-12T04:30:11.516Z,1000.57
2023-03-12T04:30:52.072Z,1000.58
2023-03-12T04:31:32.573Z,1000.59
2023-03-12T04:32:12.979Z,1000.61
2023-03-12T04:32:53.469Z,1000.61
2023-03-12T04:33:33.919Z,1000.66
2023-03-12T04:34:14.705Z,1000.64
2023-03-12T04:34:54.906Z,1000.63
2023-03-12T04:35:35.440Z,1000.64
2023-03-12T04:36:15.910Z,1000.6
2023-03-12T04:36:56.393Z,1000.65
2023-03-12T04:37:36.916Z,1000.61
2023-03-12T04:38:17.369Z,1000.62
2023-03-12T04:38:57.868Z,1000.58
2023-03-12T04:39:38.383Z,1000.52
2023-03-12T04:40:18.813Z,1000.52
2023-03-12T04:40:59.331Z,1000.5
2023-03-12T04:41:39.815Z,1000.53
2023-03-12T04:43:00.788Z,1000.46
2023-03-12T04:43:41.292Z,1000.45
2023-03-12T04:44:21.768Z,1000.45
2023-03-12T04:45:02.252Z,1000.44
2023-03-12T04:45:42.761Z,1000.43
2023-03-12T04:46:23.351Z,1000.5
2023-03-12T04:47:03.840Z,1000.43
2023-03-12T04:47:44.321Z,1000.48
2023-03-12T04:48:24.718Z,1000.49
2023-03-12T04:49:05.193Z,1000.49
2023-03-12T04:49:45.671Z,1000.51
2023-03-12T04:50:26.149Z,1000.52
2023-03-12T04:51:06.634Z,1000.55
2023-03-12T04:51:47.152Z,1000.47
2023-03-12T04:52:27.589Z,1000.53
2023-03-12T04:53:08.147Z,1000.47
2023-03-12T04:53:48.606Z,1000.44
2023-03-12T04:54:29.093Z,1000.46
2023-03-12T04:55:09.527Z,1000.49
2023-03-12T04:55:50.003Z,1000.48
2023-03-12T04:56:30.512Z,1000.49
2023-03-12T04:57:51.532Z,1000.51
2023-03-12T04:58:31.962Z,1000.48
2023-03-12T04:59:12.532Z,1000.48
2023-03-12T04:59:52.996Z,1000.48
2023-03-12T05:00:33.482Z,1000.51
2023-03-12T05:01:14.016Z,1000.49
2023-03-12T05:01:54.435Z,1000.39
2023-03-12T05:02:35.026Z,1000.32
2023-03-12T05:03:15.477Z,1000.27
2023-03-12T05:03:55.884Z,1000.26
2023-03-12T05:05:16.828Z,1000.27
2023-03-12T05:05:57.287Z,1000.21
2023-03-12T05:06:37.796Z,1000.21
2023-03-12T05:07:18.267Z,1000.2
2023-03-12T05:07:58.775Z,1000.18
2023-03-12T05:08:39.289Z,1000.14
2023-03-12T05:09:19.785Z,1000.12
2023-03-12T05:10:00.268Z,1000.13
2023-03-12T05:10:40.717Z,1000.16
2023-03-12T05:11:21.231Z,1000.14
2023-03-12T05:12:01.701Z,1000.18
2023-03-12T05:12:42.197Z,1000.15
2023-03-12T05:13:22.687Z,1000.18
2023-03-12T05:14:03.164Z,1000.24
2023-03-12T05:14:43.697Z,1000.25
2023-03-12T05:15:24.183Z,1000.23
2023-03-12T05:16:04.744Z,1000.27
2023-03-12T05:16:45.269Z,1000.26
2023-03-12T05:17:25.650Z,1000.26
2023-03-12T05:18:06.166Z,1000.25
2023-03-12T05:18:46.597Z,1000.18
2023-03-12T05:19:27.085Z,1000.18
2023-03-12T05:20:07.557Z,1000.11
2023-03-12T05:20:48.046Z,1000.15
2023-03-12T05:21:28.523Z,1000.1
2023-03-12T05:22:49.504Z,1000.08
2023-03-12T05:23:30.012Z,1000.1
2023-03-12T05:24:10.516Z,1000.07
2023-03-12T05:24:50.943Z,1000.03
2023-03-12T05:25:31.430Z,1000.05
2023-03-12T05:26:11.910Z,1000.01
2023-03-12T05:26:52.396Z,1000.01
2023-03-12T05:27:32.912Z,1000
2023-03-12T05:28:13.380Z,999.96
2023-03-12T05:28:53.833Z,999.91
2023-03-12T05:29:34.341Z,1000
2023-03-12T05:30:14.799Z,999.97
2023-03-12T05:30:55.284Z,999.99
2023-03-12T05:31:35.858Z,999.93
2023-03-12T05:32:16.341Z,1000.01
2023-03-12T05:32:57.401Z,999.93
2023-03-12T05:33:37.323Z,999.94
2023-03-12T05:34:17.803Z,999.87
2023-03-12T05:34:58.282Z,999.9
2023-03-12T05:35:38.767Z,999.82
2023-03-12T05:36:19.254Z,999.81
2023-03-12T05:36:59.720Z,999.79
2023-03-12T05:37:40.248Z,999.88
2023-03-12T05:38:20.700Z,999.81
2023-03-12T05:39:01.166Z,999.8
2023-03-12T05:39:41.647Z,999.84
2023-03-12T05:40:22.144Z,999.83
2023-03-12T05:41:02.665Z,999.74
2023-03-12T05:41:43.136Z,999.78
2023-03-12T05:42:23.709Z,999.87
2023-03-12T05:43:04.176Z,999.87
2023-03-12T05:43:44.615Z,999.84
2023-03-12T05:44:25.153Z,999.8
2023-03-12T05:45:05.690Z,999.82
2023-03-12T05:45:46.142Z,999.78
2023-03-12T05:46:26.585Z,999.77
2023-03-12T05:47:07.054Z,999.76
2023-03-12T05:47:47.504Z,999.81
2023-03-12T05:48:28.000Z,999.77
2023-03-12T05:49:08.472Z,999.76
2023-03-12T05:50:29.435Z,999.72
2023-03-12T05:51:09.912Z,999.77
2023-03-12T05:51:50.381Z,999.75
2023-03-12T05:52:30.838Z,999.75
2023-03-12T05:53:11.361Z,999.75
2023-03-12T05:53:51.812Z,999.76
2023-03-12T06:31:13.884Z,999.51
2023-03-12T06:31:54.189Z,999.46
2023-03-12T06:32:34.664Z,999.47
2023-03-12T06:33:15.767Z,999.5
2023-03-12T06:33:56.230Z,999.46
2023-03-12T06:34:36.749Z,999.52
2023-03-12T06:35:17.257Z,999.52
2023-03-12T06:35:58.861Z,999.5
2023-03-12T06:36:39.274Z,999.57
2023-03-12T06:38:37.368Z,999.51
2023-03-12T06:39:17.726Z,999.52
2023-03-12T06:39:58.181Z,999.52
2023-03-12T06:40:38.650Z,999.5
2023-03-12T06:41:19.115Z,999.5
2023-03-12T06:41:59.572Z,999.48
2023-03-12T06:42:40.055Z,999.47
2023-03-12T06:43:20.574Z,999.43
2023-03-12T06:44:01.114Z,999.46
2023-03-12T06:44:41.538Z,999.51
2023-03-12T06:45:22.028Z,999.51
2023-03-12T06:46:02.600Z,999.54
2023-03-12T06:46:43.074Z,999.49
2023-03-12T06:47:23.492Z,999.52
2023-03-12T06:48:04.679Z,999.51
2023-03-12T06:48:45.178Z,999.48
2023-03-12T06:49:25.666Z,999.46
2023-03-12T06:50:06.147Z,999.46
2023-03-12T06:50:46.614Z,999.5
2023-03-12T06:51:27.102Z,999.59
2023-03-12T06:52:07.566Z,999.58
2023-03-12T06:52:48.106Z,999.55
2023-03-12T06:53:28.528Z,999.52
2023-03-12T06:54:08.993Z,999.51
2023-03-12T06:54:49.528Z,999.48
2023-03-12T06:55:29.977Z,999.5
2023-03-12T06:56:10.480Z,999.5
2023-03-12T06:56:50.987Z,999.49
2023-03-12T06:58:11.970Z,999.53
2023-03-12T06:58:52.444Z,999.46
2023-03-12T06:59:32.925Z,999.5
2023-03-12T07:00:13.433Z,999.51
2023-03-12T07:00:53.908Z,999.5
2023-03-12T07:01:34.416Z,999.51
2023-03-12T07:02:14.997Z,999.53
2023-03-12T07:02:55.409Z,999.53
2023-03-12T07:03:35.864Z,999.5
2023-03-12T07:04:16.329Z,999.55
2023-03-12T07:05:37.294Z,999.54
2023-03-12T07:06:17.792Z,999.54
2023-03-12T07:06:58.273Z,999.61
2023-03-12T07:07:38.758Z,999.52
2023-03-12T07:08:19.232Z,999.55
2023-03-12T07:08:59.684Z,999.49
2023-03-12T07:09:40.172Z,999.53
2023-03-12T07:10:20.678Z,999.54
2023-03-12T07:11:01.884Z,999.54
2023-03-12T07:11:41.648Z,999.54
2023-03-12T07:12:22.157Z,999.57
2023-03-12T07:13:02.648Z,999.52
2023-03-12T07:13:43.125Z,999.47
2023-03-12T07:14:23.601Z,999.5
2023-03-12T07:15:04.064Z,999.44
2023-03-12T07:15:44.636Z,999.47
2023-03-12T07:16:25.079Z,999.47
2023-03-12T07:17:05.546Z,999.44
2023-03-12T07:17:46.079Z,999.49
2023-03-12T07:18:26.547Z,999.47
2023-03-12T07:19:07.018Z,999.56
2023-03-12T07:19:49.768Z,999.52
2023-03-12T07:20:28.164Z,999.53
2023-03-12T07:21:08.651Z,999.51
2023-03-12T07:21:49.121Z,999.48
2023-03-12T07:22:29.595Z,999.44
2023-03-12T07:23:10.119Z,999.5
2023-03-12T07:23:50.632Z,999.5
2023-03-12T07:24:31.093Z,999.5
2023-03-12T07:25:11.573Z,999.5
2023-03-12T07:25:52.070Z,999.48
2023-03-12T07:26:32.548Z,999.49
2023-03-12T07:27:13.061Z,999.42
2023-03-12T07:27:53.544Z,999.4
2023-03-12T07:28:34.049Z,999.42
2023-03-12T07:29:14.583Z,999.37
2023-03-12T07:29:55.041Z,999.42
2023-03-12T07:30:35.516Z,999.31
2023-03-12T07:31:16.080Z,999.31
2023-03-12T07:31:56.536Z,999.33
2023-03-12T07:32:37.070Z,999.31
2023-03-12T07:33:17.586Z,999.31
2023-03-12T07:33:58.151Z,999.28
2023-03-12T07:34:38.592Z,999.3
2023-03-12T07:35:19.085Z,999.31
2023-03-12T07:35:59.551Z,999.33
2023-03-12T07:36:40.118Z,999.38
2023-03-12T07:37:20.420Z,999.33
2023-03-12T07:38:01.006Z,999.36
2023-03-12T07:38:41.368Z,999.39
2023-03-12T07:39:21.874Z,999.34
2023-03-12T07:40:02.369Z,999.31
2023-03-12T07:40:42.866Z,999.28
2023-03-12T07:41:23.361Z,999.32
2023-03-12T07:42:03.832Z,999.32
2023-03-12T07:42:44.262Z,999.29
2023-03-12T07:43:24.803Z,999.31
2023-03-12T07:44:05.349Z,999.31
2023-03-12T07:44:45.941Z,999.35
2023-03-12T07:45:26.249Z,999.34
2023-03-12T07:46:06.698Z,999.34
2023-03-12T07:46:47.214Z,999.37
2023-03-12T07:47:27.827Z,999.33
2023-03-12T07:48:08.215Z,999.39
2023-03-12T07:48:48.739Z,999.36
2023-03-12T07:49:29.043Z,999.38
2023-03-12T07:50:09.617Z,999.35
2023-03-12T07:50:50.030Z,999.36
2023-03-12T07:51:30.514Z,999.4
2023-03-12T07:52:11.020Z,999.35
2023-03-12T07:52:51.598Z,999.4
2023-03-12T07:53:31.978Z,999.37
2023-03-12T07:54:12.467Z,999.31
2023-03-12T07:54:53.112Z,999.33
2023-03-12T07:55:33.532Z,999.32
2023-03-12T07:56:13.976Z,999.32
2023-03-12T07:56:54.478Z,999.3
2023-03-12T07:57:34.947Z,999.29
2023-03-12T07:58:15.410Z,999.3
2023-03-12T07:58:56.189Z,999.3
2023-03-12T07:59:36.571Z,999.3
2023-03-12T08:00:17.105Z,999.32
2023-03-12T08:00:57.602Z,999.26
2023-03-12T08:01:38.105Z,999.37
2023-03-12T08:02:18.602Z,999.34
2023-03-12T08:02:59.189Z,999.31
2023-03-12T08:03:39.751Z,999.37
2023-03-12T08:04:20.046Z,999.33
2023-03-12T08:05:00.468Z,999.34
2023-03-12T08:05:40.903Z,999.35
2023-03-12T08:06:21.434Z,999.36
2023-03-12T08:07:01.887Z,999.34
2023-03-12T08:07:42.303Z,999.36
2023-03-12T08:08:22.796Z,999.35
2023-03-12T08:09:03.258Z,999.34
2023-03-12T08:09:44.345Z,999.37
2023-03-12T08:10:24.264Z,999.38
2023-03-12T08:11:04.747Z,999.38
2023-03-12T08:11:45.224Z,999.34
2023-03-12T08:12:25.766Z,999.36
2023-03-12T08:13:06.183Z,999.38
2023-03-12T08:13:46.627Z,999.42
2023-03-12T08:14:27.212Z,999.41
2023-03-12T08:15:07.665Z,999.43
2023-03-12T08:15:48.119Z,999.45
2023-03-12T08:16:28.747Z,999.43
2023-03-12T08:17:09.157Z,999.39
2023-03-12T08:17:49.623Z,999.43
2023-03-12T08:18:30.099Z,999.37
2023-03-12T08:19:10.571Z,999.4
2023-03-12T08:19:51.239Z,999.39
2023-03-12T08:20:31.546Z,999.43
2023-03-12T08:21:13.102Z,999.42
2023-03-12T08:21:52.547Z,999.44
2023-03-12T08:22:33.028Z,999.43
2023-03-12T08:23:13.561Z,999.42
2023-03-12T08:23:54.021Z,999.49
2023-03-12T08:24:34.557Z,999.44
2023-03-12T08:25:15.008Z,999.45
2023-03-12T08:25:55.523Z,999.45
2023-03-12T08:26:36.084Z,999.47
2023-03-12T08:27:16.596Z,999.43
2023-03-12T08:27:56.983Z,999.47
2023-03-12T08:28:37.539Z,999.43
2023-03-12T08:29:18.066Z,999.48
2023-03-12T08:29:58.575Z,999.43
2023-03-12T08:30:39.116Z,999.44
2023-03-12T08:31:19.556Z,999.48
2023-03-12T08:32:04.860Z,999.5
2023-03-12T08:32:40.811Z,999.5
2023-03-12T08:33:21.062Z,999.49
2023-03-12T08:34:01.570Z,999.53
2023-03-12T08:34:42.069Z,999.53
2023-03-12T08:35:22.536Z,999.47
2023-03-12T08:36:03.048Z,999.51
2023-03-12T08:36:43.464Z,999.51
2023-03-12T08:37:23.946Z,999.48
2023-03-12T08:38:04.436Z,999.47
2023-03-12T08:38:44.959Z,999.48
2023-03-12T08:39:25.436Z,999.48
2023-03-12T08:40:05.961Z,999.45
2023-03-12T08:40:46.440Z,999.44
2023-03-12T08:41:26.930Z,999.46
2023-03-12T08:42:07.399Z,999.44
2023-03-12T08:43:29.373Z,999.42
2023-03-12T08:44:08.877Z,999.39
2023-03-12T08:44:49.445Z,999.4
2023-03-12T08:45:29.926Z,999.4
2023-03-12T08:46:12.243Z,999.36
2023-03-12T08:46:50.867Z,999.35
2023-03-12T08:47:31.320Z,999.35
2023-03-12T08:48:11.846Z,999.31
2023-03-12T08:48:52.294Z,999.31
2023-03-12T08:49:32.769Z,999.32
2023-03-12T08:50:13.274Z,999.32
2023-03-12T08:50:53.805Z,999.28
2023-03-12T08:51:35.178Z,999.29
2023-03-12T08:52:15.703Z,999.29
2023-03-12T08:52:56.146Z,999.27
2023-03-12T08:53:36.680Z,999.27
2023-03-12T08:54:17.127Z,999.32
2023-03-12T08:54:57.583Z,999.28
2023-03-12T08:55:38.066Z,999.31
2023-03-12T08:56:18.577Z,999.32
2023-03-12T08:56:59.057Z,999.28
2023-03-12T08:59:12.304Z,999.26
2023-03-12T08:59:52.820Z,999.27
2023-03-12T09:00:33.301Z,999.29
2023-03-12T09:01:13.759Z,999.3
2023-03-12T09:01:54.262Z,999.25
2023-03-12T09:02:34.759Z,999.31
2023-03-12T09:03:15.365Z,999.25
2023-03-12T09:03:55.827Z,999.27
2023-03-12T09:04:36.219Z,999.28
2023-03-12T09:05:16.713Z,999.25
2023-03-12T09:05:57.196Z,999.3
2023-03-12T09:06:37.626Z,999.3
2023-03-12T09:07:18.191Z,999.28
2023-03-12T09:07:58.703Z,999.31
2023-03-12T09:08:39.213Z,999.28
2023-03-12T09:09:19.711Z,999.32
2023-03-12T09:10:00.258Z,999.31
2023-03-12T09:10:40.776Z,999.3
2023-03-12T09:11:21.261Z,999.31
2023-03-12T09:12:01.704Z,999.34
2023-03-12T09:12:42.183Z,999.34
2023-03-12T09:13:22.695Z,999.38
2023-03-12T09:14:33.717Z,999.34
2023-03-12T09:15:02.327Z,999.39
2023-03-12T09:16:04.626Z,999.37
2023-03-12T09:16:45.184Z,999.35
2023-03-12T09:17:25.607Z,999.43
2023-03-12T09:18:06.093Z,999.39
2023-03-12T09:18:46.569Z,999.41
2023-03-12T09:19:27.057Z,999.43
2023-03-12T09:20:07.586Z,999.42
2023-03-12T09:20:48.043Z,999.38
2023-03-12T09:21:28.611Z,999.38
2023-03-12T09:22:09.051Z,999.38
2023-03-12T09:22:49.544Z,999.36
2023-03-12T09:23:30.038Z,999.37
2023-03-12T09:24:10.536Z,999.38
2023-03-12T09:24:51.000Z,999.37
2023-03-12T09:25:31.517Z,999.38
2023-03-12T09:26:11.947Z,999.38
2023-03-12T09:26:52.514Z,999.4
2023-03-12T09:27:33.045Z,999.39
2023-03-12T09:28:16.167Z,999.41
2023-03-12T09:28:54.033Z,999.45
2023-03-12T09:29:34.499Z,999.47
2023-03-12T09:30:15.091Z,999.44
2023-03-12T09:30:55.644Z,999.48
2023-03-12T09:31:36.102Z,999.54
2023-03-12T09:32:16.639Z,999.46
2023-03-12T09:32:57.277Z,999.5
2023-03-12T09:33:37.594Z,999.53
2023-03-12T09:34:18.133Z,999.57
2023-03-12T09:34:58.590Z,999.53
2023-03-12T09:35:39.119Z,999.51
2023-03-12T09:36:19.654Z,999.54
2023-03-12T09:37:00.164Z,999.52
2023-03-12T09:37:40.610Z,999.55
2023-03-12T09:39:01.592Z,999.54
2023-03-12T09:39:42.148Z,999.5
2023-03-12T09:40:22.592Z,999.52
2023-03-12T09:41:03.146Z,999.52
2023-03-12T09:41:43.604Z,999.54
2023-03-12T09:42:24.082Z,999.5